Time;durP1;ratioP1;P1;durP2;ratioP2;P2;SDS_P1;SDS_P2;PMS_P1;PMS_P2;Temp;Humidity;BMP_temperature;BMP_pressure;BME280_temperature;BME280_humidity;BME280_pressure;Samples;Min_cycle;Max_cycle;Signal;HPM_P1;HPM_P2
2022/11/18 00:02:31;;;;;;;33.87;20.47;;;1.20;99.90;;;;;;5067389;28;20228;-75
2022/11/18 00:05:19;;;;;;;30.43;20.60;;;1.30;99.90;;;;;;5078168;28;21062;-74
2022/11/18 00:08:08;;;;;;;30.07;19.63;;;1.60;99.90;;;;;;5059104;28;20318;-74
2022/11/18 00:10:56;;;;;;;27.87;18.73;;;1.60;99.90;;;;;;5074163;28;20236;-75
2022/11/18 00:16:54;;;;;;;23.43;17.00;;;1.50;99.90;;;;;;5083298;27;20233;-76
2022/11/18 00:19:44;;;;;;;26.53;16.73;;;1.80;99.90;;;;;;5095156;28;20225;-75
2022/11/18 00:22:32;;;;;;;24.90;16.43;;;1.70;99.90;;;;;;5085813;28;20233;-75
2022/11/18 00:25:21;;;;;;;29.30;17.37;;;1.50;99.90;;;;;;5099431;27;20216;-75
2022/11/18 00:28:10;;;;;;;24.33;16.47;;;1.80;99.90;;;;;;5104358;28;20343;-76
2022/11/18 00:31:03;;;;;;;22.57;16.00;;;1.60;99.90;;;;;;5097897;28;20234;-76
2022/11/18 00:33:51;;;;;;;22.93;15.47;;;1.60;99.90;;;;;;5093035;27;20238;-75
2022/11/18 00:36:42;;;;;;;20.53;15.13;;;1.60;99.90;;;;;;5101526;28;20232;-75
2022/11/18 00:39:31;;;;;;;21.07;15.40;;;1.60;99.90;;;;;;5098101;27;20310;-75
2022/11/18 00:45:26;;;;;;;22.00;15.50;;;1.80;99.90;;;;;;5101338;28;20221;-75
2022/11/18 00:48:20;;;;;;;19.50;14.80;;;1.90;99.90;;;;;;5104758;27;20240;-76
2022/11/18 00:51:11;;;;;;;23.30;15.83;;;1.40;99.90;;;;;;5102999;27;20236;-76
2022/11/18 00:54:01;;;;;;;22.87;15.53;;;1.40;99.90;;;;;;5087718;27;20301;-76
2022/11/18 00:56:49;;;;;;;23.33;16.70;;;1.10;99.90;;;;;;5104312;28;20718;-76
2022/11/18 00:59:38;;;;;;;25.27;15.43;;;1.20;99.90;;;;;;5079335;28;20235;-76
2022/11/18 01:02:27;;;;;;;22.33;16.13;;;1.20;99.90;;;;;;5087744;28;20228;-75
2022/11/18 01:05:15;;;;;;;22.80;15.77;;;1.50;99.90;;;;;;5081366;28;20301;-75
2022/11/18 01:08:06;;;;;;;22.43;15.93;;;1.50;99.90;;;;;;5082756;27;20224;-77
2022/11/18 01:13:17;;;;;;;24.37;15.80;;;1.80;99.90;;;;;;5098460;28;20221;-76
2022/11/18 01:14:03;;;;;;;23.20;16.73;;;1.80;99.90;;;;;;5099343;27;20235;-76
2022/11/18 01:16:54;;;;;;;22.63;16.30;;;1.40;99.90;;;;;;5086553;27;20304;-75
2022/11/18 01:19:43;;;;;;;24.87;16.37;;;1.40;99.90;;;;;;5092491;28;20229;-75
2022/11/18 01:22:31;;;;;;;24.40;16.43;;;1.40;99.90;;;;;;5084738;28;20234;-75
2022/11/18 01:25:20;;;;;;;26.33;16.67;;;1.50;99.90;;;;;;5070447;28;20231;-75
2022/11/18 01:28:10;;;;;;;24.67;16.70;;;1.60;99.90;;;;;;5065203;28;20237;-75
2022/11/18 01:31:04;;;;;;;24.87;16.60;;;1.50;99.90;;;;;;5063762;28;20795;-73
2022/11/18 01:33:53;;;;;;;22.60;15.73;;;1.50;99.90;;;;;;5068002;28;20235;-75
2022/11/18 01:36:41;;;;;;;23.90;17.00;;;1.50;99.90;;;;;;5067907;28;20796;-75
2022/11/18 01:39:31;;;;;;;22.87;15.73;;;1.60;99.90;;;;;;5091965;28;20237;-76
2022/11/18 01:42:19;;;;;;;22.13;16.03;;;1.40;99.90;;;;;;5076924;28;20229;-76
2022/11/18 01:45:28;;;;;;;24.17;16.37;;;1.30;99.90;;;;;;5075548;28;20229;-77
2022/11/18 01:48:20;;;;;;;25.47;17.33;;;1.30;99.90;;;;;;5085578;28;20230;-76
2022/11/18 01:51:15;;;;;;;22.90;16.27;;;1.30;99.90;;;;;;5088723;27;20730;-76
2022/11/18 01:54:08;;;;;;;22.70;15.87;;;1.10;99.90;;;;;;5066561;28;20703;-75
2022/11/18 01:57:01;;;;;;;26.53;17.37;;;1.50;99.90;;;;;;5093522;27;20255;-74
2022/11/18 01:59:56;;;;;;;25.17;17.30;;;1.50;99.90;;;;;;5072934;28;20226;-74
2022/11/18 02:02:47;;;;;;;22.43;16.50;;;1.60;99.90;;;;;;5094510;27;20343;-74
2022/11/18 02:05:35;;;;;;;23.83;17.10;;;1.70;99.90;;;;;;5073487;28;20230;-74
2022/11/18 02:08:24;;;;;;;25.57;17.50;;;1.30;99.90;;;;;;5085670;28;20305;-75
2022/11/18 02:14:20;;;;;;;23.20;15.80;;;1.60;99.90;;;;;;5100677;28;20671;-76
2022/11/18 02:17:17;;;;;;;23.47;16.47;;;1.60;99.90;;;;;;5093351;28;20234;-76
2022/11/18 02:20:24;;;;;;;24.70;17.03;;;1.80;99.90;;;;;;5097589;28;20861;-76
2022/11/18 02:23:40;;;;;;;21.90;15.43;;;1.80;99.90;;;;;;5080969;28;20241;-76
2022/11/18 02:27:09;;;;;;;22.23;16.10;;;1.90;99.90;;;;;;5088232;28;20242;-79
2022/11/18 02:30:02;;;;;;;22.10;15.33;;;1.90;99.90;;;;;;5084451;28;20239;-76
2022/11/18 02:32:56;;;;;;;21.83;14.50;;;2.00;99.90;;;;;;5092329;28;20288;-76
2022/11/18 02:35:50;;;;;;;21.13;14.37;;;1.80;99.90;;;;;;5097480;28;20871;-78
2022/11/18 02:38:44;;;;;;;21.37;15.43;;;1.20;99.90;;;;;;5082012;28;20331;-77
2022/11/18 02:41:35;;;;;;;21.37;14.67;;;1.30;99.90;;;;;;5083561;28;20240;-77
2022/11/18 02:44:26;;;;;;;20.67;13.97;;;1.10;99.90;;;;;;5083160;28;20216;-76
2022/11/18 02:47:17;;;;;;;19.00;14.10;;;1.00;99.90;;;;;;5085837;28;20235;-77
2022/11/18 02:50:10;;;;;;;21.67;14.00;;;1.20;99.90;;;;;;5080306;28;20227;-75
2022/11/18 02:53:01;;;;;;;19.87;13.40;;;1.40;99.90;;;;;;5071089;28;20684;-76
2022/11/18 02:55:51;;;;;;;20.60;14.17;;;1.30;99.90;;;;;;5066349;28;20236;-76
2022/11/18 02:58:40;;;;;;;19.23;12.67;;;1.50;99.90;;;;;;5074846;28;20762;-75
2022/11/18 03:01:30;;;;;;;20.20;13.00;;;1.60;99.90;;;;;;5084369;28;20567;-76
2022/11/18 03:04:22;;;;;;;19.47;13.60;;;1.20;99.90;;;;;;5070855;28;20228;-76
2022/11/18 03:07:17;;;;;;;20.63;13.87;;;1.30;99.90;;;;;;5086337;28;20228;-75
2022/11/18 03:10:05;;;;;;;20.57;13.47;;;1.40;99.90;;;;;;5081231;28;20220;-76
2022/11/18 03:13:04;;;;;;;21.03;13.77;;;1.10;99.90;;;;;;5068490;28;20223;-76
2022/11/18 03:16:02;;;;;;;22.17;14.73;;;1.30;99.90;;;;;;5083631;28;20221;-77
2022/11/18 03:18:56;;;;;;;18.83;13.57;;;1.20;99.90;;;;;;5083134;28;20312;-76
2022/11/18 03:21:52;;;;;;;20.30;14.00;;;1.20;99.90;;;;;;5084721;28;20295;-76
2022/11/18 03:24:47;;;;;;;20.77;14.20;;;1.30;99.90;;;;;;5049613;28;20770;-76
2022/11/18 03:27:40;;;;;;;20.00;13.70;;;1.10;99.90;;;;;;5071746;28;20693;-76
2022/11/18 03:30:32;;;;;;;19.17;13.80;;;1.40;99.90;;;;;;5068733;28;20222;-75
2022/11/18 03:33:25;;;;;;;22.33;14.47;;;1.20;99.90;;;;;;5071513;28;20370;-76
2022/11/18 03:36:18;;;;;;;21.60;14.93;;;1.60;99.90;;;;;;5079365;28;20221;-76
2022/11/18 03:39:12;;;;;;;21.23;14.27;;;1.90;99.90;;;;;;5064655;28;20237;-75
2022/11/18 03:42:06;;;;;;;21.27;14.30;;;1.60;99.90;;;;;;5077360;28;20229;-76
2022/11/18 03:45:00;;;;;;;22.67;15.57;;;1.50;99.90;;;;;;5079292;28;20226;-76
2022/11/18 03:47:54;;;;;;;24.60;17.20;;;1.30;99.90;;;;;;5084184;28;20811;-75
2022/11/18 03:50:47;;;;;;;24.93;17.50;;;1.00;99.90;;;;;;5093100;28;20247;-74
2022/11/18 03:53:40;;;;;;;26.60;17.73;;;1.10;99.90;;;;;;5097377;28;20773;-75
2022/11/18 03:56:34;;;;;;;25.53;16.80;;;1.30;99.90;;;;;;5094037;28;20982;-75
2022/11/18 03:59:29;;;;;;;28.20;18.03;;;0.80;99.90;;;;;;5081666;28;20687;-75
2022/11/18 04:02:21;;;;;;;28.00;17.83;;;0.70;99.90;;;;;;5094080;28;20297;-75
2022/11/18 04:05:12;;;;;;;28.63;17.30;;;0.70;99.90;;;;;;5090310;28;20227;-75
2022/11/18 04:08:04;;;;;;;27.63;17.37;;;0.70;99.90;;;;;;5080479;28;20230;-74
2022/11/18 04:11:00;;;;;;;28.63;17.53;;;0.70;99.90;;;;;;5084202;28;20315;-75
2022/11/18 04:13:50;;;;;;;28.10;17.93;;;0.80;99.90;;;;;;5082321;28;20230;-75
2022/11/18 04:16:40;;;;;;;26.03;16.37;;;0.80;99.90;;;;;;5083119;28;21576;-73
2022/11/18 04:19:29;;;;;;;28.93;16.97;;;0.90;99.90;;;;;;5096132;28;20355;-77
2022/11/18 04:22:19;;;;;;;25.27;15.83;;;0.80;99.90;;;;;;5098147;28;20245;-76
2022/11/18 04:25:08;;;;;;;27.47;15.37;;;1.00;99.90;;;;;;5096116;28;20232;-76
2022/11/18 04:27:56;;;;;;;24.23;14.57;;;0.70;99.90;;;;;;5098445;28;20255;-77
2022/11/18 04:30:46;;;;;;;23.03;13.63;;;0.50;99.90;;;;;;5093153;28;20224;-77
2022/11/18 04:33:35;;;;;;;21.97;14.63;;;0.70;99.90;;;;;;5085120;28;20230;-78
2022/11/18 04:36:24;;;;;;;24.83;15.53;;;0.90;99.90;;;;;;5092564;28;20247;-78
2022/11/18 04:39:12;;;;;;;22.63;14.90;;;0.90;99.90;;;;;;5086002;28;20572;-78
2022/11/18 04:42:01;;;;;;;24.47;15.63;;;1.10;99.90;;;;;;5083265;28;20250;-76
2022/11/18 04:44:50;;;;;;;23.80;15.13;;;1.30;99.90;;;;;;5089311;28;20243;-76
2022/11/18 04:47:40;;;;;;;23.63;15.23;;;1.30;99.90;;;;;;5094655;28;20315;-76
2022/11/18 04:50:28;;;;;;;22.27;14.07;;;1.00;99.90;;;;;;5093372;28;20228;-76
2022/11/18 04:53:17;;;;;;;21.57;14.23;;;0.70;99.90;;;;;;5093179;28;20226;-76
2022/11/18 04:56:06;;;;;;;22.03;14.70;;;0.80;99.90;;;;;;5076762;28;20386;-77
2022/11/18 04:58:55;;;;;;;23.53;13.87;;;0.90;99.90;;;;;;5099315;28;20304;-77
2022/11/18 05:01:44;;;;;;;21.57;14.47;;;0.80;99.90;;;;;;5099502;27;20231;-76
2022/11/18 05:04:34;;;;;;;22.33;14.50;;;0.40;99.90;;;;;;5088892;27;20712;-77
2022/11/18 05:07:23;;;;;;;22.10;14.77;;;0.30;99.90;;;;;;5100301;28;20249;-77
2022/11/18 05:10:11;;;;;;;21.70;14.47;;;0.40;99.90;;;;;;5087738;28;20358;-75
2022/11/18 05:12:59;;;;;;;26.17;14.13;;;0.40;99.90;;;;;;5100175;28;20213;-76
2022/11/18 05:15:50;;;;;;;24.50;14.70;;;0.30;99.90;;;;;;5091279;28;20223;-77
2022/11/18 05:18:38;;;;;;;20.90;13.37;;;0.60;99.90;;;;;;5088941;28;21567;-76
2022/11/18 05:21:28;;;;;;;21.57;13.77;;;0.50;99.90;;;;;;5085603;28;20227;-76
2022/11/18 05:24:17;;;;;;;20.57;13.60;;;0.80;99.90;;;;;;5090959;28;20869;-76
2022/11/18 05:27:06;;;;;;;25.67;14.70;;;0.40;99.90;;;;;;5086084;28;20216;-75
2022/11/18 05:29:54;;;;;;;20.13;12.93;;;0.40;99.90;;;;;;5093401;28;20219;-77
2022/11/18 05:32:43;;;;;;;18.20;12.57;;;0.20;99.90;;;;;;5092640;27;20737;-77
2022/11/18 05:35:32;;;;;;;21.93;13.53;;;0.50;99.90;;;;;;5098698;27;20238;-77
2022/11/18 05:38:21;;;;;;;22.47;11.80;;;0.40;99.90;;;;;;5093196;28;20218;-76
2022/11/18 05:43:09;;;;;;;19.17;13.27;;;0.30;99.90;;;;;;5101050;28;20288;-72
2022/11/18 05:44:18;;;;;;;20.40;13.13;;;0.30;99.90;;;;;;5091388;28;20217;-74
2022/11/18 05:47:07;;;;;;;17.37;11.30;;;0.50;99.90;;;;;;5100063;27;20348;-74
2022/11/18 05:49:55;;;;;;;16.27;10.37;;;0.50;99.90;;;;;;5102314;27;20216;-75
2022/11/18 05:52:44;;;;;;;16.57;10.87;;;0.40;99.90;;;;;;5102547;27;20217;-75
2022/11/18 05:55:39;;;;;;;17.73;11.03;;;0.40;99.90;;;;;;5105045;27;20735;-76
2022/11/18 05:58:29;;;;;;;14.40;9.77;;;0.50;99.90;;;;;;5088248;28;20224;-75
2022/11/18 06:01:21;;;;;;;14.33;9.97;;;0.50;99.90;;;;;;5097792;27;20245;-75
2022/11/18 06:04:15;;;;;;;14.97;9.27;;;0.40;99.90;;;;;;5090022;28;20697;-73
2022/11/18 06:07:08;;;;;;;14.03;9.00;;;0.40;99.90;;;;;;5098543;27;20256;-73
2022/11/18 06:09:59;;;;;;;14.27;9.07;;;0.60;99.90;;;;;;5098126;27;20249;-76
2022/11/18 06:13:02;;;;;;;13.83;9.00;;;0.70;99.90;;;;;;5088295;27;21057;-75
2022/11/18 06:15:50;;;;;;;14.30;8.47;;;0.40;99.90;;;;;;5090549;28;20219;-75
2022/11/18 06:18:39;;;;;;;12.53;8.17;;;0.50;99.90;;;;;;5083563;28;20230;-76
2022/11/18 06:21:28;;;;;;;12.83;8.03;;;0.50;99.90;;;;;;5088062;28;20309;-74
2022/11/18 06:24:17;;;;;;;11.37;7.87;;;0.50;99.90;;;;;;5083717;28;20694;-73
2022/11/18 06:27:06;;;;;;;10.53;7.33;;;0.30;99.90;;;;;;5096781;28;20697;-73
2022/11/18 06:29:56;;;;;;;12.57;7.40;;;0.20;99.90;;;;;;5078626;28;20275;-74
2022/11/18 06:32:44;;;;;;;12.73;8.10;;;0.20;99.90;;;;;;5093809;27;20223;-74
2022/11/18 06:35:33;;;;;;;11.63;7.90;;;0.50;99.90;;;;;;5078875;28;20223;-74
2022/11/18 06:38:24;;;;;;;11.70;8.20;;;0.50;99.90;;;;;;5081792;28;20232;-73
2022/11/18 06:41:13;;;;;;;12.30;8.17;;;0.30;99.90;;;;;;5096381;28;20281;-74
2022/11/18 06:44:02;;;;;;;11.57;7.93;;;0.40;99.90;;;;;;5095165;27;20302;-74
2022/11/18 06:46:54;;;;;;;11.17;7.87;;;0.40;99.90;;;;;;5095466;28;20218;-73
2022/11/18 06:49:43;;;;;;;14.17;8.13;;;0.30;99.90;;;;;;5079592;28;20227;-74
2022/11/18 06:52:32;;;;;;;13.17;8.73;;;0.40;99.90;;;;;;5072411;28;20236;-70
2022/11/18 06:55:20;;;;;;;14.00;8.97;;;0.30;99.90;;;;;;5064892;28;20243;-76
2022/11/18 06:58:09;;;;;;;15.00;9.70;;;0.50;99.90;;;;;;5074175;28;20227;-76
2022/11/18 07:00:58;;;;;;;14.70;9.80;;;0.50;99.90;;;;;;5087646;27;20219;-76
2022/11/18 07:03:48;;;;;;;15.93;9.00;;;0.40;99.90;;;;;;5076873;28;20707;-77
2022/11/18 07:06:37;;;;;;;12.63;8.13;;;0.40;99.90;;;;;;5075167;28;20216;-77
2022/11/18 07:09:26;;;;;;;12.33;8.70;;;0.30;99.90;;;;;;5062276;28;20225;-76
2022/11/18 07:12:14;;;;;;;12.03;8.50;;;0.40;99.90;;;;;;5077960;28;20231;-76
2022/11/18 07:15:03;;;;;;;15.67;9.23;;;0.60;99.90;;;;;;5074941;28;20329;-76
2022/11/18 07:17:52;;;;;;;13.07;8.77;;;0.60;99.90;;;;;;5082796;28;20223;-77
2022/11/18 07:20:42;;;;;;;16.07;8.93;;;0.70;99.90;;;;;;5073254;28;20292;-76
2022/11/18 07:23:31;;;;;;;11.70;8.40;;;0.70;99.90;;;;;;5057206;28;20227;-77
2022/11/18 07:26:20;;;;;;;14.40;8.43;;;0.50;99.90;;;;;;5072824;28;21096;-78
2022/11/18 07:53:31;;;;;;;12.37;7.70;;;0.50;99.90;;;;;;5048819;27;20663;-77
2022/11/18 07:56:21;;;;;;;14.43;10.00;;;0.60;99.90;;;;;;4991714;28;20233;-77
2022/11/18 07:59:09;;;;;;;11.77;7.70;;;0.70;99.90;;;;;;5003737;28;20241;-79
2022/11/18 08:01:58;;;;;;;15.97;8.50;;;0.60;99.90;;;;;;5015632;28;20222;-76
2022/11/18 08:04:47;;;;;;;12.47;8.00;;;0.60;99.90;;;;;;5031969;28;20225;-76
2022/11/18 08:07:36;;;;;;;11.37;7.40;;;0.80;99.90;;;;;;5034309;28;20638;-77
2022/11/18 08:10:26;;;;;;;13.87;7.87;;;0.90;99.90;;;;;;5024701;28;20326;-76
2022/11/18 08:13:15;;;;;;;13.00;7.63;;;0.90;99.90;;;;;;5044160;28;20238;-76
2022/11/18 08:16:05;;;;;;;11.33;8.27;;;0.60;99.90;;;;;;5037618;28;20678;-76
2022/11/18 08:18:54;;;;;;;13.30;8.07;;;0.60;99.90;;;;;;5032525;28;20604;-77
2022/11/18 08:21:43;;;;;;;12.17;7.83;;;0.60;99.90;;;;;;5022299;28;20304;-76
2022/11/18 08:24:32;;;;;;;11.93;7.37;;;0.80;99.90;;;;;;5027758;28;20225;-77
2022/11/18 08:27:21;;;;;;;12.30;7.17;;;0.90;99.90;;;;;;5021527;28;20236;-78
2022/11/18 08:30:11;;;;;;;15.10;8.00;;;0.80;99.90;;;;;;5020327;28;20245;-76
2022/11/18 08:33:00;;;;;;;9.70;6.90;;;1.10;99.90;;;;;;5019762;28;20229;-73
2022/11/18 08:35:49;;;;;;;13.00;7.80;;;0.80;99.90;;;;;;5022685;28;20222;-76
2022/11/18 08:38:38;;;;;;;10.53;7.47;;;0.60;99.90;;;;;;5037040;28;20247;-77
2022/11/18 08:41:31;;;;;;;11.10;7.07;;;0.60;99.90;;;;;;5040136;28;20229;-77
2022/11/18 08:44:24;;;;;;;8.70;6.60;;;0.70;99.90;;;;;;5034428;28;20267;-76
2022/11/18 08:47:13;;;;;;;10.37;7.03;;;0.80;99.90;;;;;;5025314;28;20217;-77
2022/11/18 08:50:02;;;;;;;9.57;6.57;;;0.90;99.90;;;;;;5037081;28;20267;-76
2022/11/18 08:52:51;;;;;;;11.30;7.00;;;1.00;99.90;;;;;;5041474;28;20225;-76
2022/11/18 08:55:40;;;;;;;9.63;6.67;;;0.80;99.90;;;;;;5025736;28;20229;-77
2022/11/18 08:58:28;;;;;;;8.83;6.00;;;0.90;99.90;;;;;;5043713;28;20599;-77
2022/11/18 09:01:19;;;;;;;9.13;6.90;;;1.10;99.90;;;;;;5026754;28;20238;-76
2022/11/18 09:04:07;;;;;;;9.03;6.20;;;1.10;99.90;;;;;;5029028;28;22044;-75
2022/11/18 09:06:56;;;;;;;8.80;5.50;;;0.80;99.90;;;;;;5015573;28;20232;-77
2022/11/18 09:09:45;;;;;;;8.33;6.30;;;1.00;99.90;;;;;;5026854;28;20218;-76
2022/11/18 09:12:34;;;;;;;8.03;5.90;;;1.20;99.90;;;;;;5023156;28;20287;-77
2022/11/18 09:15:23;;;;;;;7.83;5.37;;;1.30;99.90;;;;;;5020606;28;20226;-75
2022/11/18 09:18:13;;;;;;;8.03;5.43;;;1.50;99.90;;;;;;5017705;28;20233;-75
2022/11/18 09:21:04;;;;;;;8.17;5.93;;;1.20;99.90;;;;;;5012116;28;20889;-75
2022/11/18 09:23:53;;;;;;;7.77;5.97;;;1.20;99.90;;;;;;5019824;28;20234;-76
2022/11/18 09:26:41;;;;;;;8.20;6.40;;;1.20;99.90;;;;;;5007365;28;20222;-78
2022/11/18 09:29:34;;;;;;;6.77;5.30;;;1.10;99.90;;;;;;5003656;28;20226;-77
2022/11/18 09:32:22;;;;;;;10.03;5.50;;;1.30;99.90;;;;;;5022065;28;20274;-77
2022/11/18 09:35:13;;;;;;;8.07;5.57;;;1.10;99.90;;;;;;5024888;28;20230;-78
2022/11/18 09:38:01;;;;;;;8.27;5.33;;;1.10;99.90;;;;;;5007844;28;20224;-78
2022/11/18 09:41:03;;;;;;;9.13;5.90;;;0.90;99.90;;;;;;5021785;28;21065;-78
2022/11/18 09:44:03;;;;;;;7.70;5.73;;;0.90;99.90;;;;;;5008843;28;20252;-76
2022/11/18 09:47:05;;;;;;;7.50;5.63;;;0.90;99.90;;;;;;5019271;28;20226;-77
2022/11/18 09:49:56;;;;;;;7.13;5.17;;;1.10;99.90;;;;;;5022061;28;20237;-75
2022/11/18 09:52:52;;;;;;;8.93;5.73;;;1.10;99.90;;;;;;5024691;28;21029;-75
2022/11/18 09:55:42;;;;;;;7.93;6.27;;;0.90;99.90;;;;;;5017731;28;20237;-77
2022/11/18 09:58:35;;;;;;;8.33;5.80;;;1.00;99.90;;;;;;5020127;28;20237;-77
2022/11/18 10:01:23;;;;;;;6.97;5.23;;;0.90;99.90;;;;;;5021103;28;20235;-76
2022/11/18 10:04:16;;;;;;;8.20;6.10;;;1.00;99.90;;;;;;5002143;28;20316;-77
2022/11/18 10:07:07;;;;;;;8.50;6.30;;;1.10;99.90;;;;;;5022339;28;20222;-77
2022/11/18 10:10:01;;;;;;;8.77;6.00;;;1.20;99.90;;;;;;5010151;28;20755;-76
2022/11/18 10:12:55;;;;;;;7.73;5.90;;;1.40;99.90;;;;;;5022450;28;20734;-76
2022/11/18 10:15:54;;;;;;;11.00;6.00;;;1.20;99.90;;;;;;5019879;28;20230;-77
2022/11/18 10:18:49;;;;;;;8.23;5.13;;;1.00;99.90;;;;;;5018128;28;20224;-75
2022/11/18 10:21:57;;;;;;;6.63;5.33;;;1.10;99.90;;;;;;5019028;28;20222;-77
2022/11/18 10:24:50;;;;;;;8.73;5.83;;;1.10;99.90;;;;;;5017527;28;20300;-78
2022/11/18 10:27:41;;;;;;;8.27;5.37;;;1.00;99.90;;;;;;5017050;28;20250;-78
2022/11/18 10:30:31;;;;;;;11.50;5.87;;;1.10;99.90;;;;;;5018089;28;20236;-75
2022/11/18 10:33:28;;;;;;;9.87;5.87;;;1.20;99.90;;;;;;5015546;28;20222;-76
2022/11/18 10:36:27;;;;;;;8.93;6.40;;;1.00;99.90;;;;;;5017047;28;20231;-77
2022/11/18 10:39:16;;;;;;;9.40;6.53;;;1.00;99.90;;;;;;5001661;28;20229;-77
2022/11/18 10:42:06;;;;;;;8.87;5.83;;;1.00;99.90;;;;;;5004193;28;20223;-76
2022/11/18 10:45:14;;;;;;;7.97;5.33;;;0.90;99.90;;;;;;5019548;28;20225;-78
2022/11/18 10:48:08;;;;;;;8.20;5.80;;;1.00;99.90;;;;;;5018873;28;20222;-76
2022/11/18 10:50:57;;;;;;;8.40;6.20;;;1.10;99.90;;;;;;5006713;28;20225;-76
2022/11/18 10:53:45;;;;;;;9.90;5.53;;;1.30;99.90;;;;;;5000291;28;20239;-77
2022/11/18 10:56:45;;;;;;;11.97;6.00;;;1.40;99.90;;;;;;4987706;28;20258;-76
2022/11/18 10:59:39;;;;;;;8.67;5.37;;;1.40;99.90;;;;;;5010673;28;20254;-76
2022/11/18 11:02:32;;;;;;;7.13;4.90;;;1.20;99.90;;;;;;5000382;28;20227;-76
2022/11/18 11:05:23;;;;;;;7.03;5.27;;;1.20;99.90;;;;;;5000449;28;20228;-78
2022/11/18 11:08:20;;;;;;;8.87;5.43;;;1.20;99.90;;;;;;4998365;28;20586;-77
2022/11/18 11:11:27;;;;;;;7.40;5.47;;;1.20;99.90;;;;;;4997643;28;20231;-76
2022/11/18 11:14:22;;;;;;;8.67;5.37;;;1.10;99.90;;;;;;4986856;28;20644;-78
2022/11/18 11:17:14;;;;;;;7.07;5.50;;;1.20;99.90;;;;;;4997511;28;20227;-74
2022/11/18 11:20:14;;;;;;;9.40;5.67;;;1.20;99.90;;;;;;4995734;28;20744;-77
2022/11/18 11:23:09;;;;;;;7.87;5.77;;;1.00;99.90;;;;;;4997366;28;21481;-76
2022/11/18 11:26:02;;;;;;;9.27;5.77;;;1.00;99.90;;;;;;4985009;28;20262;-76
2022/11/18 11:29:20;;;;;;;6.87;5.03;;;1.20;99.90;;;;;;4981805;28;20272;-76
2022/11/18 11:32:17;;;;;;;7.63;5.77;;;1.10;99.90;;;;;;4999320;28;20218;-76
2022/11/18 11:35:16;;;;;;;10.70;6.50;;;1.00;99.90;;;;;;4997253;28;20717;-77
2022/11/18 11:38:13;;;;;;;8.77;6.20;;;1.00;99.90;;;;;;4996422;28;20224;-76
2022/11/18 11:41:14;;;;;;;9.53;6.00;;;1.20;99.90;;;;;;4983761;28;20233;-76
2022/11/18 11:44:19;;;;;;;7.50;5.50;;;1.00;99.90;;;;;;4983844;28;20715;-77
2022/11/18 11:50:52;;;;;;;9.20;5.90;;;1.30;99.90;;;;;;5000532;28;20231;-78
2022/11/18 11:54:16;;;;;;;8.40;6.00;;;1.40;99.90;;;;;;5001371;28;20314;-78
2022/11/18 11:57:15;;;;;;;6.37;4.77;;;1.20;99.90;;;;;;5005202;28;20726;-77
2022/11/18 12:00:09;;;;;;;6.10;4.30;;;1.30;99.90;;;;;;4995952;28;20218;-77
2022/11/18 12:03:13;;;;;;;7.37;4.37;;;1.20;99.90;;;;;;4999799;28;20226;-77
2022/11/18 12:06:03;;;;;;;7.00;4.67;;;1.40;99.90;;;;;;5014690;28;20215;-75
2022/11/18 12:09:03;;;;;;;48.63;25.13;;;1.50;99.90;;;;;;5009804;28;20280;-74
2022/11/18 12:11:55;;;;;;;8.83;5.37;;;1.50;99.90;;;;;;4986181;28;20230;-76
2022/11/18 12:14:52;;;;;;;9.23;5.03;;;1.60;99.90;;;;;;4987846;28;20319;-73
2022/11/18 12:17:47;;;;;;;12.33;5.23;;;1.50;99.90;;;;;;4998904;28;20262;-75
2022/11/18 12:20:44;;;;;;;6.30;4.40;;;1.50;99.90;;;;;;5000423;28;20241;-76
2022/11/18 12:23:35;;;;;;;6.90;4.80;;;1.60;99.90;;;;;;4999065;28;20225;-76
2022/11/18 12:26:34;;;;;;;8.20;4.70;;;1.50;99.90;;;;;;5011280;28;20237;-74
2022/11/18 12:29:26;;;;;;;6.27;4.73;;;1.50;99.90;;;;;;5004121;28;20224;-74
2022/11/18 12:32:35;;;;;;;6.53;4.80;;;1.50;99.90;;;;;;5011501;28;20233;-76
2022/11/18 12:35:28;;;;;;;9.57;4.97;;;1.70;99.90;;;;;;4997124;28;20245;-77
2022/11/18 12:38:29;;;;;;;8.97;4.93;;;1.70;99.90;;;;;;4999178;28;20307;-76
2022/11/18 12:45:52;;;;;;;7.40;5.20;;;1.40;99.90;;;;;;4975812;28;20233;-77
2022/11/18 12:48:41;;;;;;;11.83;5.20;;;1.40;99.90;;;;;;4925660;28;20242;-75
2022/11/18 12:51:41;;;;;;;7.67;4.83;;;1.60;99.90;;;;;;4947738;28;20248;-75
2022/11/18 12:54:34;;;;;;;7.83;5.07;;;1.70;99.90;;;;;;5002438;28;20231;-75
2022/11/18 12:57:28;;;;;;;8.13;4.87;;;1.60;99.90;;;;;;5016172;28;20225;-76
2022/11/18 13:00:28;;;;;;;7.30;5.10;;;1.50;99.90;;;;;;5015833;28;20266;-76
2022/11/18 13:03:23;;;;;;;6.53;5.10;;;1.40;99.90;;;;;;5019885;28;20226;-75
2022/11/18 13:06:26;;;;;;;8.87;4.97;;;1.30;99.90;;;;;;5020018;28;20219;-77
2022/11/18 13:09:18;;;;;;;8.30;4.77;;;1.30;99.90;;;;;;5018161;28;20235;-76
2022/11/18 13:12:17;;;;;;;7.47;5.17;;;1.10;99.90;;;;;;5021398;28;20231;-76
2022/11/18 13:18:20;;;;;;;10.87;5.83;;;1.30;99.90;;;;;;5030273;28;20232;-75
2022/11/18 13:24:13;;;;;;;8.83;5.40;;;1.50;99.90;;;;;;5020215;28;20218;-76
2022/11/18 13:27:02;;;;;;;9.53;5.60;;;1.70;99.90;;;;;;5020507;28;20448;-78
2022/11/18 13:29:56;;;;;;;8.93;5.47;;;1.60;99.90;;;;;;5007486;28;20221;-77
2022/11/18 13:32:47;;;;;;;8.83;5.83;;;1.60;99.90;;;;;;5023240;28;20230;-77
2022/11/18 13:35:40;;;;;;;9.70;5.23;;;1.60;99.90;;;;;;5020502;28;20238;-76
2022/11/18 13:38:29;;;;;;;8.87;5.70;;;1.40;99.90;;;;;;5019936;28;20223;-78
2022/11/18 13:41:23;;;;;;;9.47;5.70;;;1.30;99.90;;;;;;5021776;28;22147;-78
2022/11/18 13:44:18;;;;;;;9.23;5.83;;;1.40;99.90;;;;;;5021753;28;20723;-78
2022/11/18 13:47:13;;;;;;;8.43;5.47;;;1.50;99.90;;;;;;5034128;28;20235;-77
2022/11/18 13:50:19;;;;;;;9.63;5.63;;;1.20;99.90;;;;;;5002970;28;20256;-77
2022/11/18 13:53:19;;;;;;;11.13;5.70;;;1.00;99.90;;;;;;5001421;28;20295;-77
2022/11/18 13:56:17;;;;;;;10.70;5.57;;;1.20;99.90;;;;;;4986214;28;20231;-78
2022/11/18 13:59:06;;;;;;;10.93;5.83;;;1.10;99.90;;;;;;4999600;28;20222;-76
2022/11/18 14:02:13;;;;;;;9.50;5.83;;;1.00;99.90;;;;;;5000981;28;22334;-77
2022/11/18 14:05:02;;;;;;;11.87;5.60;;;1.10;99.90;;;;;;5001042;28;20232;-78
2022/11/18 14:08:06;;;;;;;10.93;6.43;;;1.20;99.90;;;;;;4998004;28;20226;-77
2022/11/18 14:10:55;;;;;;;9.97;6.30;;;1.30;99.90;;;;;;5000856;28;20217;-76
2022/11/18 14:13:51;;;;;;;9.03;6.37;;;1.10;99.90;;;;;;4999710;28;20227;-77
2022/11/18 14:16:42;;;;;;;14.93;6.50;;;1.00;99.90;;;;;;4999883;28;20223;-76
2022/11/18 14:19:32;;;;;;;11.27;6.93;;;1.00;99.90;;;;;;4999240;28;20809;-77
2022/11/18 14:22:23;;;;;;;9.20;6.00;;;1.10;99.90;;;;;;5004324;28;20703;-77
2022/11/18 14:25:19;;;;;;;11.00;6.60;;;1.10;99.90;;;;;;4999381;28;20722;-76
2022/11/18 14:28:19;;;;;;;13.47;6.63;;;1.10;99.90;;;;;;5001778;28;20326;-77
2022/11/18 14:31:23;;;;;;;10.00;7.23;;;1.20;99.90;;;;;;4998656;28;20220;-77
2022/11/18 14:34:22;;;;;;;10.93;7.27;;;1.00;99.90;;;;;;4995634;28;20223;-77
2022/11/18 14:37:13;;;;;;;13.13;8.20;;;1.00;99.90;;;;;;5002095;28;20724;-77
2022/11/18 14:40:02;;;;;;;12.20;7.90;;;0.70;99.90;;;;;;4986016;28;20241;-75
2022/11/18 14:42:53;;;;;;;12.00;8.20;;;0.70;99.90;;;;;;4985752;28;20214;-75
2022/11/18 14:45:41;;;;;;;13.00;8.23;;;0.90;99.90;;;;;;5000989;28;20321;-75
2022/11/18 14:48:32;;;;;;;12.97;8.47;;;0.90;99.90;;;;;;5001296;28;20239;-75
2022/11/18 14:51:21;;;;;;;16.97;8.83;;;0.70;99.90;;;;;;5001020;28;20234;-76
2022/11/18 14:54:14;;;;;;;13.47;8.80;;;1.10;99.90;;;;;;5001662;28;20227;-75
2022/11/18 14:57:06;;;;;;;13.87;9.30;;;0.90;99.90;;;;;;5000692;28;20227;-75
2022/11/18 14:59:57;;;;;;;14.37;9.80;;;1.40;99.90;;;;;;4999883;28;20231;-75
2022/11/18 15:02:45;;;;;;;15.23;10.50;;;1.40;99.90;;;;;;5000836;28;20224;-75
2022/11/18 15:05:34;;;;;;;13.47;10.37;;;1.20;99.90;;;;;;5005277;28;20291;-74
2022/11/18 15:08:22;;;;;;;12.93;9.50;;;1.30;99.90;;;;;;5006643;28;20273;-76
2022/11/18 15:11:12;;;;;;;15.27;10.20;;;1.40;99.90;;;;;;5000704;28;20293;-77
2022/11/18 15:14:01;;;;;;;14.07;9.93;;;1.10;99.90;;;;;;4998100;28;20808;-76
2022/11/18 15:16:51;;;;;;;16.57;10.90;;;0.90;99.90;;;;;;5002316;28;20234;-76
2022/11/18 17:02:12;;;;;;;21.50;12.30;;;-0.20;99.90;;;;;;5024168;27;20655;-76
2022/11/18 17:05:01;;;;;;;21.00;13.53;;;-0.10;99.90;;;;;;5014607;28;20727;-77
2022/11/18 17:07:49;;;;;;;22.53;13.93;;;0.00;99.90;;;;;;5031623;28;20227;-77
2022/11/18 17:10:38;;;;;;;22.97;13.07;;;-0.10;99.90;;;;;;5037351;28;20615;-79
2022/11/18 17:13:28;;;;;;;21.27;12.80;;;-0.30;99.90;;;;;;5022245;28;20236;-77
2022/11/18 17:16:18;;;;;;;21.60;12.10;;;-0.40;99.90;;;;;;5040161;28;20909;-78
2022/11/18 17:19:13;;;;;;;25.47;11.13;;;-0.40;99.90;;;;;;5028842;28;20228;-76
2022/11/18 17:22:02;;;;;;;24.90;11.77;;;-0.20;99.90;;;;;;5050516;28;20232;-78
2022/11/18 17:24:50;;;;;;;20.17;11.13;;;0.00;99.90;;;;;;5057399;28;20212;-78
2022/11/18 17:27:39;;;;;;;19.47;11.07;;;0.00;99.90;;;;;;5040764;28;20220;-78